WMKJ/JHB METAR and TAF weather

Enter ICAO airport designator
Station Type Date Time Source
WMKJ METAR 2019/04/18 14:00 UTC NOAA

WMKJ 181400Z 10003KT 060V140 9999 FEW022 BKN280 28/26 Q1009


Station Type Date Time Source
WMKJ Decoded METAR 2019/04/18 14:00 UTC NOAA

Johore Bharu / Senai, Malaysia (WMKJ) 01-38N 103-40E 40M
Apr 18, 2019 - 10:00 AM EDT / 2019.04.18 1400 UTC
Wind: from the E (100 degrees) at 3 MPH (3 KT) (direction variable):0
Visibility: greater than 7 mile(s):0
Sky conditions: mostly cloudy
Temperature: 82 F (28 C)
Dew Point: 78 F (26 C)
Relative Humidity: 88%
Pressure (altimeter): 29.80 in. Hg (1009 hPa)
ob: WMKJ 181400Z 10003KT 060V140 9999 FEW022 BKN280 28/26 Q1009
cycle: 14

Station Type Date Time Source
WMKJ TAF 2019/04/18 12:12 UTC NOAA

TAF TAF WMKJ 181100Z 1812/1912 09007KT 9999 FEW017CB
BECMG 1819/1821 4000 BR FEW008
BECMG 1900/1901 VRB02KT 9000 NSW FEW018 PROB30
TEMPO 1908/1912 4000 TSRA FEW016CB SCT018

Example: see airport list